Hauptseite
METAR-TAF:

METAR-TAF

Flughäfen :

Flughafen Gibraltar

Gibraltar, Gibraltar

Breite: 36-09N, Länge: 005-21W, Höhe: 5 m

Beobachtung

Neuester Wetterbericht von vor 1 Stunde und 18 Minuten, um 23:50 UTC
Wind 4 kt aus Nord/Nordost
Temperatur 16°C
Luftfeuchtigkeit 77%
Luftdruck 1010 hPa
Sichtweite 10 km oder mehr

METAR: LXGB 182350Z AUTO 03004KT 9999 // FEW021/// BKN060/// 16/12 Q1010

Zeit: 03:08 (01:08 UTC)

Prognose

Neuester Wetterbericht von vor 8 Stunden und 36 Minuten, um 16:32 UTC
Gültige Prognose vom 18 um 18 UTC bis 18 um 22 UTC
Wind 10 kt aus West/Südwest
Sichtweite 10 km oder mehr
Leicht bewölkt in der Höhe von 2000 ft
Aufgelockert bewölkt in der Höhe von 3000 ft
Zeitweise
vom 18 um 18 UTC bis 18 um 19 UTC
Sichtweite: 7000 m
Durchbrochene Bewölkung in der Höhe von 2000 ft, Towering cumulus.
Regenschauer

TAF: LXGB 181632Z 1818/1822 25010KT 9999 FEW020 SCT030 TEMPO 1818/1819 7000 SHRA BKN020TCU

Wetterbeobachtungen und Prognosen von mehr als 4000 Flughäfen (METAR und TAF Bericht).

Die verfügbaren Stationen werden durch gelbe und rote Markierungen auf der Karte dargestellt.

Führen Sie die Maus auf sie, um den Namen der Station zu sehen.

Darauf klicken, um die Beobachtung von Wetterbeobachtungen und Prognosen zu sehen.

Um die Karte zu ändern : klicken Sie auf den grünen Tasten mit einem schwarzen Kreuz Zum Vergrößern, auf den grünen Button mit einem Gedankenstrich zu verkleinern, oder auf die grünen Pfeile für benachbarte Karten.


METAR-TAF: